createdAt,value
2019-02-15T00:02:38.597Z,6.28
2019-02-15T00:07:42.643Z,6.23
2019-02-15T00:12:46.659Z,6.15
2019-02-15T00:18:09.620Z,6.13
2019-02-15T00:23:13.646Z,6.09
2019-02-15T00:28:17.653Z,5.99
2019-02-15T00:33:21.686Z,5.85
2019-02-15T00:38:25.687Z,5.82
2019-02-15T00:43:29.809Z,5.72
2019-02-15T00:48:33.826Z,5.63
2019-02-15T00:53:52.629Z,5.59
2019-02-15T00:59:14.446Z,5.51
2019-02-15T01:04:36.447Z,5.46
2019-02-15T01:09:50.899Z,5.32
2019-02-15T01:14:54.915Z,5.32
2019-02-15T01:19:58.932Z,5.24
2019-02-15T01:25:02.942Z,5.11
2019-02-15T01:30:26.052Z,5.04
2019-02-15T01:35:49.019Z,5.10
2019-02-15T01:41:00.615Z,4.98
2019-02-15T01:46:11.633Z,5.01
2019-02-15T01:51:15.662Z,5.01
2019-02-15T01:56:19.829Z,5.02
2019-02-15T02:01:26.009Z,4.99
2019-02-15T02:06:30.007Z,4.96
2019-02-15T02:11:34.021Z,5.01
2019-02-15T02:16:38.044Z,4.94
2019-02-15T02:21:42.055Z,4.90
2019-02-15T02:26:46.060Z,4.76
2019-02-15T02:31:50.276Z,4.81
2019-02-15T02:36:57.983Z,4.74
2019-02-15T02:42:02.019Z,4.75
2019-02-15T02:47:06.028Z,4.77
2019-02-15T02:52:10.045Z,4.70
2019-02-15T02:57:14.057Z,4.74
2019-02-15T03:02:18.082Z,4.72
2019-02-15T03:07:22.094Z,4.67
2019-02-15T03:12:26.110Z,4.60
2019-02-15T03:17:30.478Z,4.49
2019-02-15T03:22:34.496Z,4.39
2019-02-15T03:27:38.519Z,4.39
2019-02-15T03:32:42.552Z,4.39
2019-02-15T03:38:05.513Z,4.21
2019-02-15T03:43:09.579Z,4.10
2019-02-15T03:48:13.634Z,4.00
2019-02-15T03:53:17.655Z,3.97
2019-02-15T03:58:21.681Z,3.97
2019-02-15T04:03:25.698Z,3.93
2019-02-15T04:08:29.705Z,3.91
2019-02-15T04:13:33.766Z,3.87
2019-02-15T04:18:37.803Z,3.84
2019-02-15T04:23:42.069Z,3.74
2019-02-15T04:28:46.082Z,3.74
2019-02-15T04:33:50.096Z,3.74
2019-02-15T04:38:54.116Z,3.66
2019-02-15T04:43:58.141Z,3.68
2019-02-15T04:49:02.159Z,3.75
2019-02-15T04:54:06.190Z,3.81
2019-02-15T04:59:10.214Z,3.77
2019-02-15T05:04:14.230Z,3.73
2019-02-15T05:09:18.255Z,3.59
2019-02-15T05:14:22.260Z,3.49
2019-02-15T05:19:26.289Z,3.47
2019-02-15T05:24:30.300Z,3.43
2019-02-15T05:29:34.315Z,3.47
2019-02-15T05:34:38.338Z,3.50
2019-02-15T05:39:42.519Z,3.34
2019-02-15T05:44:46.528Z,3.26
2019-02-15T05:49:50.605Z,3.31
2019-02-15T05:54:54.629Z,3.32
2019-02-15T05:59:58.677Z,3.41
2019-02-15T06:05:02.728Z,3.46
2019-02-15T06:10:07.581Z,3.45
2019-02-15T06:15:15.076Z,3.29
2019-02-15T06:20:17.429Z,3.26
2019-02-15T06:25:21.448Z,3.23
2019-02-15T06:30:25.462Z,3.32
2019-02-15T06:35:29.466Z,3.43
2019-02-15T06:40:33.524Z,3.47
2019-02-15T06:45:37.848Z,3.45
2019-02-15T06:50:41.863Z,3.42
2019-02-15T06:55:45.877Z,3.43
2019-02-15T07:01:08.098Z,3.45
2019-02-15T07:06:12.113Z,3.50
2019-02-15T07:11:16.130Z,3.54
2019-02-15T07:16:20.139Z,3.49
2019-02-15T07:21:24.145Z,3.41
2019-02-15T07:26:28.452Z,3.43
2019-02-15T07:31:32.484Z,3.52
2019-02-15T07:36:36.518Z,3.59
2019-02-15T07:41:40.554Z,3.75
2019-02-15T07:46:44.597Z,3.87
2019-02-15T07:51:48.687Z,4.05
2019-02-15T07:56:52.717Z,4.28
2019-02-15T08:02:01.873Z,4.51
2019-02-15T08:07:02.486Z,4.64
2019-02-15T08:12:06.497Z,4.84
2019-02-15T08:17:10.553Z,5.07
2019-02-15T08:22:14.578Z,5.17
2019-02-15T08:27:18.613Z,5.31
2019-02-15T08:32:22.631Z,5.56
2019-02-15T08:37:26.651Z,5.77
2019-02-15T08:42:30.701Z,5.83
2019-02-15T08:47:34.712Z,5.84
2019-02-15T08:52:38.739Z,6.01
2019-02-15T08:57:42.743Z,6.09
2019-02-15T09:02:46.773Z,6.31
2019-02-15T09:07:50.798Z,6.38
2019-02-15T09:12:54.817Z,6.67
2019-02-15T09:17:58.853Z,6.90
2019-02-15T09:23:02.870Z,7.13
2019-02-15T09:28:25.833Z,7.23
2019-02-15T09:33:29.921Z,7.25
2019-02-15T09:38:33.938Z,7.49
2019-02-15T09:43:37.955Z,7.65
2019-02-15T09:48:41.965Z,7.82
2019-02-15T09:53:45.977Z,8.02
2019-02-15T09:58:50.013Z,8.22
2019-02-15T10:03:55.301Z,9.22
2019-02-15T10:08:59.560Z,12.20
2019-02-15T10:14:03.589Z,14.20
2019-02-15T10:19:07.605Z,11.97
2019-02-15T10:24:11.619Z,13.41
2019-02-15T10:29:15.660Z,13.60
2019-02-15T10:34:19.682Z,15.80
2019-02-15T10:39:24.092Z,15.15
2019-02-15T10:44:28.152Z,19.75
2019-02-15T10:49:32.172Z,22.06
2019-02-15T10:54:36.199Z,22.83
2019-02-15T10:59:40.225Z,24.22
2019-02-15T11:04:44.667Z,21.70
2019-02-15T11:09:48.688Z,25.52
2019-02-15T11:14:52.733Z,21.93
2019-02-15T11:19:56.752Z,25.09
2019-02-15T11:25:00.589Z,24.82
2019-02-15T11:30:05.289Z,19.78
2019-02-15T11:35:10.760Z,18.93
2019-02-15T11:40:14.814Z,20.84
2019-02-15T11:45:18.844Z,20.43
2019-02-15T11:50:22.870Z,22.39
2019-02-15T11:55:26.891Z,22.00
2019-02-15T12:00:33.233Z,23.94
2019-02-15T12:05:37.266Z,21.95
2019-02-15T12:10:41.316Z,21.69
2019-02-15T12:15:45.320Z,22.87
2019-02-15T12:20:49.483Z,25.16
2019-02-15T12:25:53.512Z,25.46
2019-02-15T12:30:57.538Z,28.02
2019-02-15T12:36:01.573Z,27.14
2019-02-15T12:41:05.597Z,22.61
2019-02-15T12:46:09.638Z,22.49
2019-02-15T12:51:13.656Z,23.66
2019-02-15T12:56:17.669Z,24.36
2019-02-15T13:01:21.815Z,21.15
2019-02-15T13:06:28.661Z,21.15
2019-02-15T13:11:31.888Z,22.34
2019-02-15T13:16:35.917Z,23.32
2019-02-15T13:21:39.950Z,22.11
2019-02-15T13:26:44.022Z,22.11
2019-02-15T13:31:48.074Z,19.63
2019-02-15T13:36:52.097Z,17.69
2019-02-15T13:41:56.192Z,16.59
2019-02-15T13:47:00.222Z,15.60
2019-02-15T13:52:04.488Z,15.24
2019-02-15T13:57:08.698Z,15.21
2019-02-15T14:02:12.696Z,14.94
2019-02-15T14:07:18.637Z,14.75
2019-02-15T14:12:22.640Z,14.58
2019-02-15T14:17:26.673Z,14.56
2019-02-15T14:22:30.802Z,14.49
2019-02-15T14:27:35.761Z,14.46
2019-02-15T14:32:39.780Z,14.46
2019-02-15T14:37:43.801Z,14.23
2019-02-15T14:42:49.307Z,14.21
2019-02-15T14:47:55.305Z,14.16
2019-02-15T14:52:59.562Z,14.07
2019-02-15T14:58:03.608Z,14.06
2019-02-15T15:03:07.744Z,13.97
2019-02-15T15:08:11.767Z,13.94
2019-02-15T15:13:15.789Z,13.83
2019-02-15T15:18:19.800Z,13.85
2019-02-15T15:23:23.848Z,13.68
2019-02-15T15:28:27.871Z,13.60
2019-02-15T15:33:31.887Z,13.48
2019-02-15T15:38:35.903Z,13.47
2019-02-15T15:43:39.927Z,13.35
2019-02-15T15:48:43.961Z,13.25
2019-02-15T15:53:48.085Z,13.12
2019-02-15T15:58:52.087Z,12.99
2019-02-15T16:03:56.114Z,12.88
2019-02-15T16:09:00.137Z,12.74
2019-02-15T16:14:04.229Z,12.68
2019-02-15T16:19:08.452Z,12.51
2019-02-15T16:24:13.026Z,12.34
2019-02-15T16:29:17.014Z,12.22
2019-02-15T16:34:21.077Z,12.08
2019-02-15T16:39:25.071Z,11.90
2019-02-15T16:44:29.114Z,11.77
2019-02-15T16:49:33.137Z,11.59
2019-02-15T16:54:37.176Z,11.45
2019-02-15T16:59:41.244Z,11.31
2019-02-15T17:04:45.264Z,11.24
2019-02-15T17:09:49.300Z,11.15
2019-02-15T17:14:53.451Z,11.06
2019-02-15T17:19:57.480Z,10.97
2019-02-15T17:25:01.500Z,10.88
2019-02-15T17:30:05.869Z,10.78
2019-02-15T17:35:10.042Z,10.71
2019-02-15T17:40:14.131Z,10.64
2019-02-15T17:45:18.159Z,10.60
2019-02-15T17:50:22.200Z,10.56
2019-02-15T17:55:26.220Z,10.45
2019-02-15T18:00:31.814Z,10.34
2019-02-15T18:05:35.841Z,10.31
2019-02-15T18:10:39.936Z,10.25
2019-02-15T18:15:44.005Z,10.21
2019-02-15T18:20:48.042Z,10.11
2019-02-15T18:25:52.064Z,10.06
2019-02-15T18:30:56.174Z,10.02
2019-02-15T18:36:00.224Z,9.91
2019-02-15T18:41:13.115Z,9.83
2019-02-15T18:46:10.034Z,9.81
2019-02-15T18:51:15.047Z,9.76
2019-02-15T18:56:19.081Z,9.21
2019-02-15T19:01:23.463Z,9.82
2019-02-15T19:06:27.482Z,9.86
2019-02-15T19:11:31.533Z,9.75
2019-02-15T19:16:35.749Z,9.65
2019-02-15T19:21:39.801Z,9.61
2019-02-15T19:26:43.951Z,9.49
2019-02-15T19:31:48.087Z,9.42
2019-02-15T19:36:52.164Z,9.32
2019-02-15T19:41:56.206Z,9.30
2019-02-15T19:47:00.281Z,9.32
2019-02-15T19:52:04.328Z,9.28
2019-02-15T19:57:08.404Z,9.25
2019-02-15T20:02:12.487Z,9.28
2019-02-15T20:07:16.737Z,9.17
2019-02-15T20:12:20.892Z,9.12
2019-02-15T20:17:25.074Z,9.11
2019-02-15T20:22:29.200Z,9.01
2019-02-15T20:27:33.372Z,9.06
2019-02-15T20:32:37.540Z,8.99
2019-02-15T20:37:42.016Z,8.97
2019-02-15T20:42:46.106Z,8.88
2019-02-15T20:47:50.236Z,8.78
2019-02-15T20:52:54.259Z,8.65
2019-02-15T20:57:58.496Z,8.58
2019-02-15T21:03:02.669Z,8.53
2019-02-15T21:08:06.725Z,8.38
2019-02-15T21:13:19.979Z,8.30
2019-02-15T21:18:16.582Z,8.21
2019-02-15T21:23:20.780Z,8.14
2019-02-15T21:28:25.100Z,8.05
2019-02-15T21:33:29.149Z,7.97
2019-02-15T21:38:33.211Z,7.92
2019-02-15T21:43:37.383Z,7.95
2019-02-15T21:48:41.421Z,7.98
2019-02-15T21:53:45.486Z,7.92
2019-02-15T21:58:49.517Z,7.90
2019-02-15T22:03:53.562Z,7.86
2019-02-15T22:08:57.584Z,7.87
2019-02-15T22:14:01.608Z,7.85
2019-02-15T22:19:05.876Z,7.72
2019-02-15T22:24:09.914Z,7.65
2019-02-15T22:29:13.951Z,7.61
2019-02-15T22:34:18.008Z,7.54
2019-02-15T22:39:22.033Z,7.47
2019-02-15T22:44:26.064Z,7.44
2019-02-15T22:49:30.170Z,7.40
2019-02-15T22:54:34.215Z,7.35
2019-02-15T22:59:38.234Z,7.29
2019-02-15T23:04:42.331Z,7.27
2019-02-15T23:09:46.557Z,7.18
2019-02-15T23:14:50.573Z,7.12
2019-02-15T23:19:54.695Z,7.09
2019-02-15T23:24:58.713Z,7.05
2019-02-15T23:30:02.747Z,7.01
2019-02-15T23:35:06.775Z,6.95
2019-02-15T23:40:10.786Z,6.93
2019-02-15T23:45:14.803Z,6.90
2019-02-15T23:50:18.837Z,6.87
2019-02-15T23:55:22.866Z,6.88
